createdAt,value
2018-03-03T00:00:06.034Z,26.00
2018-03-03T00:01:08.593Z,25.33
2018-03-03T00:02:11.270Z,26.70
2018-03-03T00:03:13.861Z,27.75
2018-03-03T00:04:17.191Z,27.20
2018-03-03T00:05:19.775Z,25.50
2018-03-03T00:06:22.337Z,26.92
2018-03-03T00:07:24.942Z,24.90
2018-03-03T00:08:27.514Z,26.48
2018-03-03T00:09:30.840Z,26.40
2018-03-03T00:10:33.389Z,26.35
2018-03-03T00:11:35.938Z,25.52
2018-03-03T00:12:39.287Z,26.48
2018-03-03T00:13:41.860Z,27.13
2018-03-03T00:14:44.465Z,26.90
2018-03-03T00:15:47.789Z,27.15
2018-03-03T00:16:50.363Z,26.35
2018-03-03T00:17:52.953Z,25.88
2018-03-03T00:18:55.503Z,28.58
2018-03-03T00:19:58.064Z,27.62
2018-03-03T00:21:00.715Z,26.95
2018-03-03T00:22:03.385Z,28.40
2018-03-03T00:23:05.977Z,28.08
2018-03-03T00:24:08.594Z,25.73
2018-03-03T00:25:11.923Z,25.75
2018-03-03T00:26:14.478Z,28.85
2018-03-03T00:27:17.043Z,26.90
2018-03-03T00:28:19.599Z,26.75
2018-03-03T00:29:22.186Z,27.95
2018-03-03T00:30:24.739Z,27.48
2018-03-03T00:31:27.317Z,26.27
2018-03-03T00:32:29.907Z,27.75
2018-03-03T00:33:32.474Z,27.17
2018-03-03T00:34:35.062Z,27.23
2018-03-03T00:35:37.630Z,25.35
2018-03-03T00:36:40.194Z,26.67
2018-03-03T00:37:42.777Z,25.55
2018-03-03T00:38:46.104Z,24.73
2018-03-03T00:39:48.659Z,27.70
2018-03-03T00:40:51.231Z,27.25
2018-03-03T00:41:53.785Z,25.27
2018-03-03T00:42:56.370Z,27.45
2018-03-03T00:43:58.930Z,26.30
2018-03-03T00:45:01.492Z,27.62
2018-03-03T00:46:04.041Z,27.10
2018-03-03T00:47:06.594Z,26.05
2018-03-03T00:48:09.956Z,25.17
2018-03-03T00:49:12.512Z,27.83
2018-03-03T00:50:15.058Z,27.05
2018-03-03T00:51:17.631Z,26.45
2018-03-03T00:52:20.194Z,26.58
2018-03-03T00:53:22.776Z,27.08
2018-03-03T00:54:25.330Z,26.20
2018-03-03T00:55:27.900Z,27.33
2018-03-03T00:56:30.511Z,27.45
2018-03-03T00:57:33.871Z,27.67
2018-03-03T00:58:36.432Z,26.80
2018-03-03T00:59:39.019Z,27.33
2018-03-03T01:00:42.346Z,27.00
2018-03-03T01:01:44.900Z,26.77
2018-03-03T01:02:47.517Z,26.85
2018-03-03T01:03:50.065Z,26.08
2018-03-03T01:04:52.677Z,27.85
2018-03-03T01:05:55.998Z,27.42
2018-03-03T01:06:58.562Z,26.95
2018-03-03T01:08:01.120Z,26.60
2018-03-03T01:09:03.677Z,25.83
2018-03-03T01:10:07.037Z,27.30
2018-03-03T01:11:09.594Z,27.58
2018-03-03T01:12:12.142Z,26.10
2018-03-03T01:13:14.743Z,28.25
2018-03-03T01:14:17.293Z,26.75
2018-03-03T01:15:19.841Z,26.60
2018-03-03T01:16:22.390Z,27.37
2018-03-03T01:17:24.974Z,27.95
2018-03-03T01:18:27.537Z,27.83
2018-03-03T01:19:30.132Z,27.65
2018-03-03T01:20:32.691Z,29.15
2018-03-03T01:21:35.290Z,27.17
2018-03-03T01:22:38.606Z,27.42
2018-03-03T01:23:41.157Z,27.30
2018-03-03T01:24:43.741Z,27.52
2018-03-03T01:25:46.301Z,24.52
2018-03-03T01:26:48.858Z,28.27
2018-03-03T01:27:51.413Z,28.30
2018-03-03T01:28:53.991Z,27.42
2018-03-03T01:29:56.574Z,26.42
2018-03-03T01:30:59.268Z,27.23
2018-03-03T01:32:01.823Z,27.17
2018-03-03T01:33:04.382Z,26.60
2018-03-03T01:34:06.937Z,26.80
2018-03-03T01:35:09.521Z,28.65
2018-03-03T01:36:12.075Z,27.90
2018-03-03T01:37:14.625Z,27.62
2018-03-03T01:38:17.195Z,27.80
2018-03-03T01:39:19.797Z,27.67
2018-03-03T01:40:22.378Z,28.65
2018-03-03T01:41:24.931Z,28.30
2018-03-03T01:42:27.488Z,28.17
2018-03-03T01:43:30.050Z,28.70
2018-03-03T01:44:32.640Z,27.73
2018-03-03T01:45:35.194Z,25.45
2018-03-03T01:46:37.747Z,27.08
2018-03-03T01:47:40.297Z,27.00
2018-03-03T01:48:42.854Z,26.60
2018-03-03T01:49:46.206Z,28.02
2018-03-03T01:50:48.806Z,26.15
2018-03-03T01:51:51.372Z,27.02
2018-03-03T01:52:54.694Z,26.10
2018-03-03T01:53:57.250Z,27.48
2018-03-03T01:54:59.807Z,28.40
2018-03-03T01:56:02.388Z,28.30
2018-03-03T01:57:04.934Z,27.65
2018-03-03T01:58:07.522Z,27.70
2018-03-03T01:59:10.071Z,25.77
2018-03-03T02:00:12.626Z,27.17
2018-03-03T02:01:15.186Z,26.90
2018-03-03T02:02:18.506Z,27.33
2018-03-03T02:03:21.094Z,27.67
2018-03-03T02:04:23.651Z,25.85
2018-03-03T02:05:26.212Z,28.12
2018-03-03T02:06:28.802Z,28.67
2018-03-03T02:07:31.354Z,26.50
2018-03-03T02:08:33.910Z,27.30
2018-03-03T02:09:36.458Z,25.80
2018-03-03T02:10:39.017Z,28.48
2018-03-03T02:11:41.609Z,27.13
2018-03-03T02:12:44.169Z,26.95
2018-03-03T02:13:46.727Z,28.08
2018-03-03T02:14:49.278Z,27.83
2018-03-03T02:15:51.839Z,27.33
2018-03-03T02:16:55.269Z,27.00
2018-03-03T02:17:57.832Z,27.92
2018-03-03T02:19:00.418Z,27.23
2018-03-03T02:20:03.007Z,27.52
2018-03-03T02:21:05.566Z,26.58
2018-03-03T02:22:08.113Z,26.37
2018-03-03T02:23:10.665Z,25.73
2018-03-03T02:24:13.218Z,26.87
2018-03-03T02:25:15.805Z,26.50
2018-03-03T02:26:18.398Z,26.98
2018-03-03T02:27:20.950Z,28.75
2018-03-03T02:28:23.510Z,26.67
2018-03-03T02:29:26.068Z,28.15
2018-03-03T02:30:28.625Z,27.02
2018-03-03T02:31:31.221Z,26.98
2018-03-03T02:32:33.788Z,27.40
2018-03-03T02:33:36.394Z,27.83
2018-03-03T02:34:39.715Z,26.00
2018-03-03T02:35:42.286Z,28.70
2018-03-03T02:36:44.885Z,27.98
2018-03-03T02:37:47.442Z,28.27
2018-03-03T02:38:50.039Z,28.12
2018-03-03T02:39:53.361Z,26.73
2018-03-03T02:40:55.914Z,26.50
2018-03-03T02:41:58.507Z,27.87
2018-03-03T02:43:01.060Z,26.83
2018-03-03T02:44:03.647Z,26.60
2018-03-03T02:45:06.198Z,25.70
2018-03-03T02:46:08.763Z,27.50
2018-03-03T02:47:11.317Z,26.27
2018-03-03T02:48:13.874Z,26.60
2018-03-03T02:49:16.462Z,26.80
2018-03-03T02:50:19.020Z,29.45
2018-03-03T02:51:21.609Z,26.60
2018-03-03T02:52:24.167Z,28.25
2018-03-03T02:53:26.722Z,27.25
2018-03-03T02:54:29.279Z,27.15
2018-03-03T02:55:31.829Z,28.10
2018-03-03T02:56:35.183Z,27.15
2018-03-03T02:57:37.906Z,27.45
2018-03-03T02:58:40.456Z,26.20
2018-03-03T02:59:43.775Z,28.10
2018-03-03T03:00:46.330Z,26.85
2018-03-03T03:01:48.910Z,27.60
2018-03-03T03:02:51.468Z,28.30
2018-03-03T03:03:54.023Z,27.85
2018-03-03T03:04:56.585Z,27.48
2018-03-03T03:05:59.146Z,28.92
2018-03-03T03:07:02.537Z,27.35
2018-03-03T03:08:05.089Z,26.75
2018-03-03T03:09:08.411Z,25.62
2018-03-03T03:10:10.967Z,26.92
2018-03-03T03:11:13.524Z,28.05
2018-03-03T03:12:16.134Z,26.15
2018-03-03T03:13:19.466Z,27.30
2018-03-03T03:14:22.029Z,26.48
2018-03-03T03:15:25.350Z,26.58
2018-03-03T03:16:27.906Z,27.92
2018-03-03T03:17:30.494Z,26.12
2018-03-03T03:18:33.052Z,29.20
2018-03-03T03:19:35.607Z,28.25
2018-03-03T03:20:38.157Z,27.52
2018-03-03T03:21:40.710Z,27.85
2018-03-03T03:22:44.086Z,26.67
2018-03-03T03:23:46.638Z,26.75
2018-03-03T03:24:49.198Z,28.08
2018-03-03T03:25:51.764Z,26.98
2018-03-03T03:26:54.324Z,28.20
2018-03-03T03:27:56.917Z,26.40
2018-03-03T03:29:00.255Z,26.20
2018-03-03T03:30:02.816Z,27.02
2018-03-03T03:31:05.372Z,28.00
2018-03-03T03:32:07.927Z,27.83
2018-03-03T03:33:10.519Z,28.98
2018-03-03T03:34:13.081Z,26.90
2018-03-03T03:35:15.640Z,26.25
2018-03-03T03:36:18.193Z,25.70
2018-03-03T03:37:21.514Z,27.17
2018-03-03T03:38:24.103Z,28.35
2018-03-03T03:39:26.666Z,27.92
2018-03-03T03:40:29.217Z,24.98
2018-03-03T03:41:31.771Z,26.52
2018-03-03T03:42:34.333Z,27.08
2018-03-03T03:43:36.923Z,26.40
2018-03-03T03:44:39.478Z,26.37
2018-03-03T03:45:42.053Z,25.65
2018-03-03T03:46:44.610Z,27.62
2018-03-03T03:47:47.191Z,28.20
2018-03-03T03:48:49.775Z,25.85
2018-03-03T03:49:52.337Z,26.85
2018-03-03T03:50:54.886Z,26.00
2018-03-03T03:51:57.444Z,27.40
2018-03-03T03:52:59.997Z,27.17
2018-03-03T03:54:02.581Z,26.98
2018-03-03T03:55:05.179Z,28.33
2018-03-03T03:56:07.734Z,28.12
2018-03-03T03:57:10.286Z,27.60
2018-03-03T03:58:12.851Z,25.42
2018-03-03T03:59:15.401Z,27.40
2018-03-03T04:00:17.984Z,27.20
2018-03-03T04:01:20.566Z,27.20
2018-03-03T04:02:23.122Z,27.58
2018-03-03T04:03:25.680Z,29.00
2018-03-03T04:04:28.239Z,26.95
2018-03-03T04:05:30.799Z,26.55
2018-03-03T04:06:33.392Z,27.42
2018-03-03T04:07:35.965Z,28.85
2018-03-03T04:08:38.521Z,26.10
2018-03-03T04:09:41.106Z,26.98
2018-03-03T04:10:43.736Z,28.15
2018-03-03T04:11:46.323Z,27.85
2018-03-03T04:12:48.910Z,27.75
2018-03-03T04:13:51.468Z,27.35
2018-03-03T04:14:54.014Z,27.98
2018-03-03T04:15:56.609Z,27.92
2018-03-03T04:16:59.170Z,26.48
2018-03-03T04:18:01.727Z,27.95
2018-03-03T04:19:04.282Z,27.13
2018-03-03T04:20:06.873Z,26.90
2018-03-03T04:21:09.444Z,26.73
2018-03-03T04:22:12.003Z,27.85
2018-03-03T04:23:14.557Z,29.10
2018-03-03T04:24:17.105Z,30.20
2018-03-03T04:25:19.685Z,26.37
2018-03-03T04:26:22.238Z,27.25
2018-03-03T04:27:24.803Z,26.08
2018-03-03T04:28:27.354Z,28.62
2018-03-03T04:29:29.942Z,26.87
2018-03-03T04:30:32.502Z,26.92
2018-03-03T04:31:35.057Z,27.02
2018-03-03T04:32:37.634Z,26.90
2018-03-03T04:33:40.267Z,26.37
2018-03-03T04:34:42.849Z,27.37
2018-03-03T04:35:46.170Z,25.98
2018-03-03T04:36:48.732Z,27.42
2018-03-03T04:37:51.294Z,26.12
2018-03-03T04:38:53.846Z,26.50
2018-03-03T04:39:56.485Z,27.27
2018-03-03T04:40:59.040Z,26.60
2018-03-03T04:42:01.603Z,26.58
2018-03-03T04:43:04.168Z,27.83
2018-03-03T04:45:15.843Z,26.87
2018-03-03T04:46:18.390Z,25.65
2018-03-03T04:47:20.946Z,29.15
2018-03-03T04:48:23.508Z,26.87
2018-03-03T04:49:26.065Z,28.12
2018-03-03T04:50:28.658Z,26.62
2018-03-03T04:51:31.259Z,27.98
2018-03-03T04:52:33.815Z,27.08
2018-03-03T04:53:36.371Z,28.48
2018-03-03T04:54:38.935Z,26.77
2018-03-03T04:55:42.290Z,27.55
2018-03-03T04:56:45.176Z,26.23
2018-03-03T04:57:47.771Z,28.02
2018-03-03T04:58:54.306Z,28.25
2018-03-03T05:00:12.563Z,28.30
2018-03-03T05:01:15.119Z,27.23
2018-03-03T05:02:23.236Z,26.05
2018-03-03T05:03:28.635Z,28.40
2018-03-03T05:04:36.801Z,27.50
2018-03-03T05:07:39.459Z,26.73
2018-03-03T05:08:42.028Z,26.05
2018-03-03T05:09:44.548Z,26.37
2018-03-03T05:10:48.724Z,28.87
2018-03-03T05:11:52.030Z,28.35
2018-03-03T05:14:34.677Z,27.27
2018-03-03T05:15:52.090Z,25.75
2018-03-03T05:18:44.130Z,27.17
2018-03-03T05:19:52.446Z,28.17
2018-03-03T05:21:00.663Z,26.75
2018-03-03T05:22:09.738Z,27.00
2018-03-03T05:23:18.125Z,26.10
2018-03-03T05:24:26.243Z,26.37
2018-03-03T05:25:34.489Z,24.40
2018-03-03T05:26:43.385Z,25.83
2018-03-03T05:27:51.522Z,25.58
2018-03-03T05:28:59.719Z,26.35
2018-03-03T05:30:07.923Z,28.30
2018-03-03T05:31:16.089Z,26.90
2018-03-03T05:34:06.936Z,26.50
2018-03-03T05:35:15.142Z,27.30
2018-03-03T05:36:33.367Z,27.05
2018-03-03T05:37:41.454Z,25.40
2018-03-03T05:40:27.538Z,26.45
2018-03-03T05:41:35.788Z,27.85
2018-03-03T05:42:44.033Z,27.45
2018-03-03T05:43:47.365Z,25.60
2018-03-03T05:44:55.541Z,25.40
2018-03-03T05:46:03.816Z,25.37
2018-03-03T05:48:59.342Z,23.92
2018-03-03T05:50:20.562Z,24.87
2018-03-03T05:51:40.756Z,23.52
2018-03-03T05:52:59.023Z,24.02
2018-03-03T05:54:07.212Z,22.27
2018-03-03T05:55:15.406Z,22.60
2018-03-03T05:56:23.700Z,22.95
2018-03-03T05:57:31.804Z,24.52
2018-03-03T05:58:40.192Z,24.70
2018-03-03T05:59:48.384Z,23.95
2018-03-03T06:00:51.856Z,23.80
2018-03-03T06:01:59.838Z,24.02
2018-03-03T06:03:07.844Z,22.60
2018-03-03T06:04:15.950Z,21.55
2018-03-03T06:05:24.231Z,23.40
2018-03-03T06:06:30.194Z,22.80
2018-03-03T06:07:41.465Z,23.33
2018-03-03T06:08:45.813Z,21.45
2018-03-03T06:09:51.466Z,25.08
2018-03-03T06:10:53.999Z,21.90
2018-03-03T06:11:56.538Z,22.80
2018-03-03T06:12:59.058Z,21.37
2018-03-03T06:14:01.615Z,24.30
2018-03-03T06:15:04.159Z,23.40
2018-03-03T06:16:06.695Z,22.33
2018-03-03T06:17:09.219Z,25.60
2018-03-03T06:18:11.797Z,26.52
2018-03-03T06:19:14.325Z,24.00
2018-03-03T06:20:16.845Z,23.80
2018-03-03T06:21:20.133Z,22.67
2018-03-03T06:22:23.422Z,23.92
2018-03-03T06:23:25.981Z,24.42
2018-03-03T06:24:29.268Z,23.27
2018-03-03T06:25:32.592Z,24.42
2018-03-03T06:26:35.113Z,40.42
2018-03-03T06:27:38.408Z,29.73
2018-03-03T06:28:40.932Z,29.65
2018-03-03T06:29:43.458Z,23.92
2018-03-03T06:30:46.019Z,27.25
2018-03-03T06:31:48.542Z,26.70
2018-03-03T06:32:51.092Z,27.17
2018-03-03T06:33:53.677Z,30.70
2018-03-03T06:34:56.210Z,25.62
2018-03-03T06:35:58.732Z,28.38
2018-03-03T06:37:01.259Z,25.05
2018-03-03T06:38:03.829Z,22.58
2018-03-03T06:39:06.384Z,23.08
2018-03-03T06:40:08.920Z,24.37
2018-03-03T06:41:11.445Z,34.65
2018-03-03T06:42:13.999Z,26.30
2018-03-03T06:43:16.563Z,26.40
2018-03-03T06:44:19.129Z,22.20
2018-03-03T06:45:21.664Z,23.52
2018-03-03T06:46:24.189Z,23.40
2018-03-03T06:47:27.476Z,24.70
2018-03-03T06:48:30.774Z,23.95
2018-03-03T06:49:33.337Z,25.62
2018-03-03T06:50:35.889Z,27.10
2018-03-03T06:51:39.186Z,26.58
2018-03-03T06:52:41.710Z,25.95
2018-03-03T06:55:23.477Z,23.30
2018-03-03T06:58:03.858Z,24.83
2018-03-03T06:59:06.390Z,23.70
2018-03-03T07:00:08.953Z,23.77
2018-03-03T07:01:11.504Z,27.33
2018-03-03T07:02:14.035Z,24.55
2018-03-03T07:03:17.373Z,23.80
2018-03-03T07:04:19.920Z,21.08
2018-03-03T07:05:22.473Z,22.08
2018-03-03T07:06:25.033Z,24.42
2018-03-03T07:07:28.390Z,23.00
2018-03-03T07:08:30.934Z,22.60
2018-03-03T07:09:33.486Z,22.58
2018-03-03T07:10:36.017Z,24.10
2018-03-03T07:11:39.319Z,22.65
2018-03-03T07:12:41.907Z,22.40
2018-03-03T07:13:44.445Z,21.85
2018-03-03T07:14:47.741Z,23.50
2018-03-03T07:15:50.271Z,22.50
2018-03-03T07:16:52.904Z,23.35
2018-03-03T07:17:55.428Z,24.08
2018-03-03T07:18:58.724Z,21.58
2018-03-03T07:20:01.255Z,21.48
2018-03-03T07:21:04.569Z,23.90
2018-03-03T07:22:07.152Z,23.12
2018-03-03T07:23:09.690Z,21.60
2018-03-03T07:24:13.033Z,23.95
2018-03-03T07:25:15.567Z,24.23
2018-03-03T07:26:18.125Z,24.37
2018-03-03T07:27:20.669Z,24.48
2018-03-03T07:28:24.023Z,22.05
2018-03-03T07:29:26.541Z,24.17
2018-03-03T07:30:29.085Z,24.30
2018-03-03T07:31:32.392Z,21.98
2018-03-03T07:32:34.997Z,22.35
2018-03-03T07:33:37.533Z,24.92
2018-03-03T07:34:40.062Z,23.45
2018-03-03T07:35:43.359Z,24.40
2018-03-03T07:36:46.693Z,22.30
2018-03-03T07:37:49.234Z,24.55
2018-03-03T07:38:51.822Z,22.48
2018-03-03T07:39:54.347Z,23.70
2018-03-03T07:40:57.634Z,23.40
2018-03-03T07:42:00.972Z,24.55
2018-03-03T07:43:03.510Z,25.37
2018-03-03T07:44:06.051Z,25.75
2018-03-03T07:45:09.349Z,24.27
2018-03-03T07:46:11.900Z,24.48
2018-03-03T07:47:15.224Z,24.85
2018-03-03T07:48:17.753Z,25.77
2018-03-03T07:49:21.059Z,24.92
2018-03-03T07:50:23.636Z,25.60
2018-03-03T07:51:26.168Z,24.92
2018-03-03T07:52:29.464Z,23.83
2018-03-03T07:53:31.999Z,23.87
2018-03-03T07:54:34.529Z,24.63
2018-03-03T07:55:37.106Z,24.25
2018-03-03T07:56:50.502Z,23.95
2018-03-03T07:57:53.437Z,25.77
2018-03-03T07:58:57.680Z,23.55
2018-03-03T08:00:00.217Z,27.08
2018-03-03T08:01:03.542Z,25.52
2018-03-03T08:02:06.474Z,26.40
2018-03-03T08:03:09.780Z,24.30
2018-03-03T08:04:12.309Z,24.95
2018-03-03T08:05:14.838Z,24.00
2018-03-03T08:06:17.375Z,24.50
2018-03-03T08:07:19.934Z,23.45
2018-03-03T08:08:22.467Z,23.20
2018-03-03T08:09:24.992Z,24.60
2018-03-03T08:10:27.528Z,25.98
2018-03-03T08:11:30.103Z,25.12
2018-03-03T08:12:32.629Z,24.40
2018-03-03T08:13:35.165Z,23.85
2018-03-03T08:14:37.696Z,24.58
2018-03-03T08:15:40.241Z,26.02
2018-03-03T08:16:43.580Z,25.70
2018-03-03T08:17:46.111Z,24.63
2018-03-03T08:18:49.416Z,23.87
2018-03-03T08:19:51.942Z,24.92
2018-03-03T08:20:55.604Z,25.70
2018-03-03T08:21:58.130Z,24.75
2018-03-03T08:23:00.662Z,26.90
2018-03-03T08:24:03.357Z,26.55
2018-03-03T08:25:06.402Z,23.33
2018-03-03T08:26:09.121Z,23.92
2018-03-03T08:27:11.881Z,26.50
2018-03-03T08:28:14.422Z,27.17
2018-03-03T08:29:17.746Z,25.85
2018-03-03T08:30:20.296Z,26.00
2018-03-03T08:31:22.856Z,25.12
2018-03-03T08:32:26.193Z,25.65
2018-03-03T08:33:28.743Z,25.85
2018-03-03T08:34:31.278Z,25.50
2018-03-03T08:35:33.817Z,26.60
2018-03-03T08:36:36.357Z,24.98
2018-03-03T08:37:38.931Z,25.98
2018-03-03T08:38:41.469Z,26.23
2018-03-03T08:39:44.047Z,25.80
2018-03-03T08:40:46.584Z,25.30
2018-03-03T08:41:49.129Z,26.20
2018-03-03T08:42:52.464Z,27.33
2018-03-03T08:43:55.045Z,26.80
2018-03-03T08:44:57.537Z,25.33
2018-03-03T08:46:00.071Z,27.83
2018-03-03T08:47:02.651Z,25.88
2018-03-03T08:48:05.191Z,26.17
2018-03-03T08:49:07.721Z,25.45
2018-03-03T08:50:10.251Z,27.35
2018-03-03T08:51:12.776Z,25.60
2018-03-03T08:52:15.355Z,27.73
2018-03-03T08:53:17.896Z,23.48
2018-03-03T08:54:20.424Z,26.00
2018-03-03T08:55:22.951Z,26.35
2018-03-03T08:56:25.477Z,25.92
2018-03-03T08:57:28.818Z,26.73
2018-03-03T08:58:31.341Z,27.87
2018-03-03T08:59:33.875Z,27.37
2018-03-03T09:00:36.414Z,27.20
2018-03-03T09:01:38.968Z,25.33
2018-03-03T09:02:41.544Z,26.15
2018-03-03T09:03:44.080Z,26.17
2018-03-03T09:04:46.613Z,27.13
2018-03-03T09:05:49.153Z,28.70
2018-03-03T09:06:51.686Z,26.20
2018-03-03T09:07:54.251Z,26.40
2018-03-03T09:08:56.828Z,26.70
2018-03-03T09:09:59.361Z,27.25
2018-03-03T09:11:02.654Z,26.33
2018-03-03T09:12:05.198Z,27.98
2018-03-03T09:13:07.741Z,26.42
2018-03-03T09:14:10.306Z,27.80
2018-03-03T09:15:12.873Z,29.45
2018-03-03T09:16:15.409Z,30.25
2018-03-03T09:17:17.947Z,26.77
2018-03-03T09:18:20.479Z,26.40
2018-03-03T09:19:23.008Z,26.62
2018-03-03T09:20:25.574Z,26.52
2018-03-03T09:21:28.100Z,26.83
2018-03-03T09:22:31.393Z,28.73
2018-03-03T09:23:34.717Z,24.98
2018-03-03T09:24:37.249Z,26.20
2018-03-03T09:25:39.773Z,26.48
2018-03-03T09:26:42.334Z,27.70
2018-03-03T09:27:44.872Z,28.40
2018-03-03T09:28:47.441Z,27.70
2018-03-03T09:29:50.016Z,28.33
2018-03-03T09:30:52.577Z,28.67
2018-03-03T09:31:55.335Z,28.40
2018-03-03T09:32:57.872Z,29.17
2018-03-03T09:34:01.192Z,28.10
2018-03-03T09:35:03.724Z,28.90
2018-03-03T09:36:07.032Z,28.87
2018-03-03T09:37:09.616Z,28.70
2018-03-03T09:38:12.146Z,30.00
2018-03-03T09:39:15.458Z,28.50
2018-03-03T09:40:18.041Z,28.73
2018-03-03T09:41:20.581Z,28.62
2018-03-03T09:42:23.121Z,31.25
2018-03-03T09:43:26.420Z,30.75
2018-03-03T09:44:28.962Z,30.17
2018-03-03T09:45:31.527Z,28.02
2018-03-03T09:46:34.054Z,29.42
2018-03-03T09:47:36.605Z,28.50
2018-03-03T09:48:39.138Z,29.55
2018-03-03T09:49:42.445Z,30.83
2018-03-03T09:50:45.022Z,29.17
2018-03-03T09:51:47.564Z,28.02
2018-03-03T09:52:50.105Z,29.37
2018-03-03T09:53:52.649Z,28.85
2018-03-03T09:54:55.204Z,28.48
2018-03-03T09:55:57.778Z,30.30
2018-03-03T09:57:00.306Z,35.92
2018-03-03T09:58:02.842Z,36.03
2018-03-03T09:59:05.374Z,31.87
2018-03-03T10:00:07.909Z,29.95
2018-03-03T10:01:10.473Z,29.67
2018-03-03T10:02:13.005Z,29.52
2018-03-03T10:03:15.557Z,31.25
2018-03-03T10:04:18.098Z,32.90
2018-03-03T10:05:20.624Z,30.73
2018-03-03T10:06:23.963Z,33.92
2018-03-03T10:07:26.505Z,29.92
2018-03-03T10:08:29.041Z,30.73
2018-03-03T10:09:32.333Z,34.00
2018-03-03T10:10:34.868Z,30.65
2018-03-03T10:11:37.443Z,28.73
2018-03-03T10:13:49.607Z,31.60
2018-03-03T10:14:52.153Z,31.27
2018-03-03T10:15:54.697Z,32.50
2018-03-03T10:16:57.229Z,32.67
2018-03-03T10:17:59.762Z,31.20
2018-03-03T10:19:02.328Z,28.58
2018-03-03T10:20:04.869Z,31.85
2018-03-03T10:21:07.426Z,30.35
2018-03-03T10:22:10.729Z,29.92
2018-03-03T10:23:13.273Z,31.70
2018-03-03T10:24:16.611Z,30.17
2018-03-03T10:25:19.145Z,30.08
2018-03-03T10:26:21.677Z,31.15
2018-03-03T10:27:24.999Z,30.70
2018-03-03T10:28:27.577Z,29.55
2018-03-03T10:29:30.130Z,32.33
2018-03-03T10:30:32.677Z,30.75
2018-03-03T10:31:35.973Z,29.52
2018-03-03T10:32:38.505Z,30.80
2018-03-03T10:33:41.078Z,30.17
2018-03-03T10:34:44.377Z,29.45
2018-03-03T10:35:46.922Z,29.23
2018-03-03T10:36:49.459Z,30.50
2018-03-03T10:37:52.018Z,29.35
2018-03-03T10:38:54.545Z,30.10
2018-03-03T10:39:57.873Z,29.92
2018-03-03T10:41:00.417Z,30.67
2018-03-03T10:42:02.977Z,30.60
2018-03-03T10:43:05.545Z,30.37
2018-03-03T10:44:08.083Z,29.65
2018-03-03T10:45:11.382Z,29.77
2018-03-03T10:46:13.930Z,30.20
2018-03-03T10:47:17.236Z,30.08
2018-03-03T10:48:19.805Z,29.65
2018-03-03T10:49:22.384Z,29.02
2018-03-03T10:50:24.921Z,28.23
2018-03-03T10:51:28.218Z,24.75
2018-03-03T10:52:30.762Z,29.58
2018-03-03T10:53:34.113Z,29.10
2018-03-03T10:54:37.408Z,29.80
2018-03-03T10:55:39.946Z,29.48
2018-03-03T10:56:42.543Z,29.58
2018-03-03T10:57:45.077Z,29.15
2018-03-03T10:58:47.645Z,30.33
2018-03-03T10:59:50.188Z,29.10
2018-03-03T11:00:52.717Z,28.65
2018-03-03T11:01:55.289Z,30.27
2018-03-03T11:02:57.832Z,30.80
2018-03-03T11:04:00.380Z,32.10
2018-03-03T11:05:02.944Z,30.70
2018-03-03T11:06:05.524Z,28.95
2018-03-03T11:07:08.128Z,30.55
2018-03-03T11:08:10.661Z,28.60
2018-03-03T11:09:13.207Z,30.62
2018-03-03T11:10:15.744Z,29.65
2018-03-03T11:11:18.330Z,30.67
2018-03-03T11:12:20.873Z,29.80
2018-03-03T11:13:24.169Z,31.02
2018-03-03T11:14:26.729Z,29.63
2018-03-03T11:15:29.289Z,30.70
2018-03-03T11:16:32.641Z,29.50
2018-03-03T11:17:35.183Z,30.65
2018-03-03T11:18:37.736Z,30.27
2018-03-03T11:19:40.265Z,30.10
2018-03-03T11:20:43.571Z,30.65
2018-03-03T11:21:46.133Z,31.12
2018-03-03T11:22:48.665Z,31.48
2018-03-03T11:23:51.201Z,30.02
2018-03-03T11:24:53.738Z,31.80
2018-03-03T11:25:56.314Z,27.25
2018-03-03T11:26:58.841Z,32.38
2018-03-03T11:28:01.370Z,31.23
2018-03-03T11:29:03.917Z,32.50
2018-03-03T11:30:06.456Z,31.02
2018-03-03T11:31:09.850Z,31.15
2018-03-03T11:32:12.373Z,30.83
2018-03-03T11:33:14.905Z,30.45
2018-03-03T11:34:17.444Z,31.62
2018-03-03T11:35:20.734Z,32.53
2018-03-03T11:36:23.296Z,29.98
2018-03-03T11:37:26.642Z,29.27
2018-03-03T11:38:29.174Z,31.60
2018-03-03T11:39:31.712Z,29.10
2018-03-03T11:40:35.057Z,32.42
2018-03-03T11:41:37.598Z,31.35
2018-03-03T11:42:40.169Z,32.40
2018-03-03T11:43:42.730Z,31.85
2018-03-03T11:44:45.267Z,32.20
2018-03-03T11:45:47.804Z,31.48
2018-03-03T11:46:50.367Z,32.08
2018-03-03T11:47:52.893Z,31.00
2018-03-03T11:48:55.471Z,32.42
2018-03-03T11:49:58.005Z,32.50
2018-03-03T11:51:00.532Z,33.90
2018-03-03T11:52:03.065Z,32.78
2018-03-03T11:53:05.605Z,32.60
2018-03-03T11:54:08.173Z,33.90
2018-03-03T11:55:10.737Z,33.95
2018-03-03T11:56:13.266Z,32.90
2018-03-03T11:57:15.793Z,33.50
2018-03-03T11:58:18.369Z,33.08
2018-03-03T11:59:20.908Z,32.08
2018-03-03T12:00:23.445Z,32.95
2018-03-03T12:01:26.770Z,30.83
2018-03-03T12:02:29.303Z,32.97
2018-03-03T12:03:32.598Z,32.83
2018-03-03T12:04:35.138Z,33.90
2018-03-03T12:05:38.476Z,34.67
2018-03-03T12:06:41.011Z,28.42
2018-03-03T12:07:43.547Z,33.42
2018-03-03T12:08:46.078Z,31.92
2018-03-03T12:09:48.648Z,32.70
2018-03-03T12:10:51.216Z,31.52
2018-03-03T12:11:53.760Z,32.40
2018-03-03T12:12:56.297Z,31.30
2018-03-03T12:13:59.601Z,32.63
2018-03-03T12:15:02.169Z,32.17
2018-03-03T12:16:04.701Z,31.40
2018-03-03T12:17:07.240Z,31.50
2018-03-03T12:18:09.788Z,34.80
2018-03-03T12:19:12.326Z,32.72
2018-03-03T12:20:14.891Z,32.25
2018-03-03T12:21:18.202Z,34.83
2018-03-03T12:22:20.775Z,33.90
2018-03-03T12:23:23.324Z,31.08
2018-03-03T12:24:25.856Z,31.25
2018-03-03T12:25:29.150Z,29.87
2018-03-03T12:26:32.460Z,30.05
2018-03-03T12:27:35.025Z,30.88
2018-03-03T12:28:37.556Z,33.90
2018-03-03T12:29:40.890Z,29.77
2018-03-03T12:30:43.424Z,31.62
2018-03-03T12:31:46.789Z,30.98
2018-03-03T12:32:49.324Z,31.70
2018-03-03T12:33:51.861Z,35.15
2018-03-03T12:34:54.394Z,31.95
2018-03-03T12:35:57.697Z,34.10
2018-03-03T12:37:00.272Z,33.78
2018-03-03T12:38:02.801Z,33.50
2018-03-03T12:39:05.345Z,35.42
2018-03-03T12:40:07.881Z,31.90
2018-03-03T12:41:10.410Z,32.30
2018-03-03T12:42:12.993Z,33.38
2018-03-03T12:43:15.530Z,31.45
2018-03-03T12:44:18.056Z,32.28
2018-03-03T12:45:20.584Z,33.20
2018-03-03T12:46:23.881Z,35.08
2018-03-03T12:47:26.440Z,36.03
2018-03-03T12:48:29.738Z,35.65
2018-03-03T12:49:32.266Z,32.38
2018-03-03T12:50:35.577Z,33.83
2018-03-03T12:51:38.114Z,34.13
2018-03-03T12:52:41.463Z,30.58
2018-03-03T12:53:44.001Z,33.90
2018-03-03T12:54:46.545Z,35.08
2018-03-03T12:55:49.863Z,31.08
2018-03-03T12:56:52.436Z,34.33
2018-03-03T12:57:54.974Z,32.83
2018-03-03T12:58:57.522Z,33.88
2018-03-03T13:00:00.867Z,35.05
2018-03-03T13:01:03.397Z,33.60
2018-03-03T13:02:05.934Z,34.42
2018-03-03T13:03:08.458Z,34.13
2018-03-03T13:04:11.001Z,35.22
2018-03-03T13:05:13.574Z,35.22
2018-03-03T13:06:16.104Z,34.88
2018-03-03T13:07:19.401Z,34.85
2018-03-03T13:08:22.697Z,35.08
2018-03-03T13:09:25.241Z,35.10
2018-03-03T13:10:28.570Z,35.00
2018-03-03T13:11:31.098Z,34.97
2018-03-03T13:12:34.397Z,35.60
2018-03-03T13:13:36.929Z,37.63
2018-03-03T13:14:39.456Z,38.17
2018-03-03T13:15:42.032Z,35.25
2018-03-03T13:16:44.567Z,32.78
2018-03-03T13:17:47.102Z,33.88
2018-03-03T13:18:50.392Z,36.08
2018-03-03T13:19:53.682Z,33.67
2018-03-03T13:20:57.033Z,36.72
2018-03-03T13:21:59.615Z,38.42
2018-03-03T13:24:11.048Z,34.03
2018-03-03T13:25:13.577Z,35.38
2018-03-03T13:26:16.916Z,35.60
2018-03-03T13:27:19.445Z,32.83
2018-03-03T13:28:22.737Z,36.35
2018-03-03T13:29:25.285Z,36.35
2018-03-03T13:30:28.619Z,34.10
2018-03-03T13:31:31.140Z,38.58
2018-03-03T13:32:33.736Z,36.65
2018-03-03T13:33:36.265Z,36.78
2018-03-03T13:34:39.567Z,38.47
2018-03-03T13:35:42.104Z,35.88
2018-03-03T13:36:45.405Z,36.22
2018-03-03T13:37:47.972Z,36.47
2018-03-03T13:38:51.302Z,37.83
2018-03-03T13:39:53.881Z,33.72
2018-03-03T13:40:56.440Z,35.20
2018-03-03T13:41:58.970Z,37.92
2018-03-03T13:43:01.513Z,34.42
2018-03-03T13:44:04.806Z,36.83
2018-03-03T13:45:07.337Z,36.55
2018-03-03T13:46:09.896Z,36.40
2018-03-03T13:47:12.421Z,34.88
2018-03-03T13:48:14.951Z,36.72
2018-03-03T13:49:17.496Z,35.95